עמוד ראשי
METAR-TAF:

METAR-TAF

שדות תעופה :

Bisha, ערב הסעודית

קו רוחב: 19-59N, קו אורך: 042-37E, גובה: 1167מטר

תצפית מזג אוויר נוכחית

הדו"ח נערך לפני 41דקות, בשעה 19:00 UTC
רוח 8קשר מכיוון מערב
טמפרטורת 33 צלסיוס
לחות 30%
לחץ 1014 hPa
ראות 10 קילומטר או יותר
ללא עננים שבסיסם נמוך מ 5000 רגל או קומולונימבוס

METAR: OEBH 131900Z 26008KT CAVOK 33/13 Q1014 NOSIG

זמן: 22:41 (19:41 UTC)

תחזית

הדו"ח נערך לפני 8 שעות ו 41דקות, בשעה 11:00 UTC
תחזית בתוקף מ 13 ב 12 UTC עד 14 ב 18 UTC
רוח 8קשר מכיוון מזרח/דרום-מזרח
ראות 10 קילומטר או יותר
מעט עננים בגובה 3000רגל
יעשה מ
13 ב 18 UTC עד 13 ב 20 UTC
רוח 5קשר מכיוון דרום/דרום-מערב
יעשה מ
14 ב 04 UTC עד 14 ב 06 UTC
רוח 8קשר מכיוון צפון

TAF: OEBH 131100Z 1312/1418 11008KT 9999 FEW030 BECMG 1318/1320 20005KT BECMG 1404/1406 35008KT

תצפיות ותחזיות מזג אוויר לגבי יותר מ- 4,000 שדות תעופה ברחבי העולם. דוחות METAR ו- TAF.

התחנות הזמינות מסומנות בנקודות צהובות ואדומות על גבי המפה.

העבר את העכבר לנקודה הצבעונית על מנת לראות את שם התחנה.

לאחר מכן, לחץ כדי לראות את תוכן ואת תחזיות מזג האוויר.

כדי לשנות את המפה: לחץ על הכפתורים הירוקים עם הפלוס השחור כדי להתקרב; על הכפתור הירוק עם המקף כדי להתרחק; או בחיצים הירוקים למפות סמוכות.


METAR-TAF: